createdAt,value
2022-07-29T00:01:48.909Z,17.99
2022-07-29T00:04:15.739Z,18.03
2022-07-29T00:06:42.553Z,18.03
2022-07-29T00:09:09.159Z,18.05
2022-07-29T00:11:35.653Z,17.80
2022-07-29T00:14:02.203Z,17.81
2022-07-29T00:16:28.824Z,17.83
2022-07-29T00:18:55.345Z,17.81
2022-07-29T00:21:21.838Z,17.84
2022-07-29T00:23:48.410Z,17.90
2022-07-29T00:26:14.876Z,17.70
2022-07-29T00:28:41.430Z,17.74
2022-07-29T00:31:08.968Z,17.70
2022-07-29T00:33:35.535Z,17.67
2022-07-29T00:36:01.995Z,17.66
2022-07-29T00:38:28.517Z,17.55
2022-07-29T00:40:55.007Z,17.56
2022-07-29T00:43:21.656Z,17.58
2022-07-29T00:45:48.152Z,17.62
2022-07-29T00:48:14.666Z,17.65
2022-07-29T00:50:41.265Z,17.63
2022-07-29T00:53:09.211Z,17.62
2022-07-29T00:55:36.333Z,17.59
2022-07-29T00:58:03.035Z,17.49
2022-07-29T01:00:31.667Z,17.53
2022-07-29T01:02:58.843Z,17.46
2022-07-29T01:05:51.559Z,17.44
2022-07-29T01:08:16.954Z,17.49
2022-07-29T01:10:44.830Z,17.58
2022-07-29T01:13:12.469Z,17.58
2022-07-29T01:15:49.280Z,17.65
2022-07-29T01:18:29.356Z,17.67
2022-07-29T01:21:27.642Z,17.60
2022-07-29T01:24:20.594Z,17.66
2022-07-29T01:26:53.378Z,17.76
2022-07-29T01:29:36.255Z,17.79
2022-07-29T01:32:27.807Z,17.76
2022-07-29T01:35:07.094Z,17.88
2022-07-29T01:37:40.409Z,17.90
2022-07-29T01:40:15.655Z,17.91
2022-07-29T01:42:49.600Z,17.91
2022-07-29T01:45:34.453Z,17.85
2022-07-29T01:48:11.238Z,17.83
2022-07-29T01:50:46.551Z,17.81
2022-07-29T01:53:15.793Z,17.86
2022-07-29T01:55:45.633Z,17.89
2022-07-29T01:58:15.149Z,17.96
2022-07-29T02:00:43.631Z,17.98
2022-07-29T02:03:13.081Z,18.02
2022-07-29T02:05:43.259Z,18.03
2022-07-29T02:08:11.565Z,18.06
2022-07-29T02:10:40.977Z,18.09
2022-07-29T02:13:08.614Z,18.07
2022-07-29T02:15:36.465Z,18.10
2022-07-29T02:18:07.106Z,18.03
2022-07-29T02:20:34.953Z,17.96
2022-07-29T02:23:03.126Z,17.97
2022-07-29T02:25:36.922Z,17.91
2022-07-29T02:28:06.158Z,17.88
2022-07-29T02:30:33.880Z,17.92
2022-07-29T02:33:01.340Z,18.04
2022-07-29T02:35:28.210Z,18.14
2022-07-29T02:38:21.691Z,18.12
2022-07-29T02:40:50.717Z,18.15
2022-07-29T02:43:19.526Z,18.18
2022-07-29T02:45:48.306Z,18.13
2022-07-29T02:48:23.437Z,18.08
2022-07-29T02:50:51.261Z,18.09
2022-07-29T02:53:26.098Z,18.05
2022-07-29T02:56:02.836Z,17.97
2022-07-29T02:58:33.343Z,17.86
2022-07-29T03:01:04.006Z,17.76
2022-07-29T03:03:34.945Z,17.66
2022-07-29T03:06:03.850Z,17.68
2022-07-29T03:08:32.970Z,17.66
2022-07-29T03:11:01.000Z,17.66
2022-07-29T03:13:29.404Z,17.64
2022-07-29T03:15:56.441Z,17.65
2022-07-29T03:18:23.279Z,17.70
2022-07-29T03:20:49.891Z,17.49
2022-07-29T03:23:21.797Z,17.46
2022-07-29T03:25:48.638Z,17.46
2022-07-29T03:28:15.234Z,17.25
2022-07-29T03:30:44.611Z,17.18
2022-07-29T03:33:13.268Z,17.21
2022-07-29T03:35:40.598Z,17.11
2022-07-29T03:38:07.137Z,16.94
2022-07-29T03:40:59.344Z,16.81
2022-07-29T03:43:29.970Z,16.82
2022-07-29T03:45:58.591Z,16.85
2022-07-29T03:48:27.446Z,16.80
2022-07-29T03:50:54.027Z,16.74
2022-07-29T03:53:20.970Z,16.61
2022-07-29T03:55:51.994Z,16.64
2022-07-29T03:58:20.318Z,16.81
2022-07-29T04:00:48.017Z,16.92
2022-07-29T04:03:16.006Z,17.10
2022-07-29T04:05:42.647Z,17.20
2022-07-29T04:08:09.127Z,17.20
2022-07-29T04:10:35.931Z,16.82
2022-07-29T04:13:02.721Z,16.87
2022-07-29T04:15:31.362Z,17.01
2022-07-29T04:17:58.779Z,17.11
2022-07-29T04:20:25.369Z,17.20
2022-07-29T04:22:51.935Z,17.25
2022-07-29T04:25:18.491Z,17.37
2022-07-29T04:28:03.233Z,17.49
2022-07-29T04:30:31.248Z,17.51
2022-07-29T04:32:57.807Z,17.50
2022-07-29T04:35:24.413Z,17.45
2022-07-29T04:37:50.985Z,17.42
2022-07-29T04:40:17.544Z,17.49
2022-07-29T04:42:46.569Z,17.58
2022-07-29T04:45:15.045Z,17.64
2022-07-29T04:47:42.877Z,17.65
2022-07-29T04:50:10.493Z,17.63
2022-07-29T04:52:37.646Z,17.63
2022-07-29T04:55:05.492Z,17.66
2022-07-29T04:57:32.022Z,17.72
2022-07-29T04:59:58.538Z,17.80
2022-07-29T05:02:25.119Z,17.83
2022-07-29T05:04:51.643Z,17.82
2022-07-29T05:07:18.247Z,17.94
2022-07-29T05:09:44.984Z,17.95
2022-07-29T05:12:11.805Z,18.02
2022-07-29T05:14:38.365Z,18.14
2022-07-29T05:17:04.926Z,18.23
2022-07-29T05:19:31.530Z,18.23
2022-07-29T05:21:58.018Z,18.31
2022-07-29T05:24:24.497Z,18.38
2022-07-29T05:26:51.009Z,18.59
2022-07-29T05:29:42.776Z,18.77
2022-07-29T05:32:04.765Z,18.72
2022-07-29T05:34:31.834Z,18.73
2022-07-29T05:36:58.724Z,18.77
2022-07-29T05:39:46.606Z,18.69
2022-07-29T05:42:12.651Z,18.62
2022-07-29T05:44:40.520Z,18.59
2022-07-29T05:47:07.471Z,18.63
2022-07-29T05:49:34.174Z,18.66
2022-07-29T05:52:00.700Z,18.76
2022-07-29T05:54:27.254Z,18.68
2022-07-29T05:56:53.725Z,18.85
2022-07-29T05:59:20.226Z,18.92
2022-07-29T06:01:46.777Z,19.00
2022-07-29T06:04:13.772Z,19.10
2022-07-29T06:06:40.485Z,19.27
2022-07-29T06:09:12.713Z,19.23
2022-07-29T06:11:40.581Z,19.23
2022-07-29T06:14:07.093Z,19.34
2022-07-29T06:16:33.639Z,19.36
2022-07-29T06:19:00.151Z,19.44
2022-07-29T06:21:26.757Z,19.59
2022-07-29T06:23:53.250Z,19.62
2022-07-29T06:26:30.697Z,19.75
2022-07-29T06:28:58.521Z,19.80
2022-07-29T06:31:25.090Z,19.94
2022-07-29T06:33:51.815Z,20.11
2022-07-29T06:36:21.397Z,20.20
2022-07-29T06:38:51.581Z,20.35
2022-07-29T06:41:18.916Z,20.44
2022-07-29T06:43:51.973Z,20.48
2022-07-29T06:46:22.455Z,20.67
2022-07-29T06:48:49.652Z,20.78
2022-07-29T06:51:17.355Z,20.97
2022-07-29T06:53:59.475Z,21.10
2022-07-29T06:56:39.572Z,21.33
2022-07-29T06:59:08.578Z,21.43
2022-07-29T07:01:37.108Z,21.49
2022-07-29T07:04:03.752Z,21.41
2022-07-29T07:06:30.295Z,21.45
2022-07-29T07:08:57.358Z,21.53
2022-07-29T07:11:23.960Z,21.54
2022-07-29T07:13:50.561Z,21.63
2022-07-29T07:16:17.266Z,21.67
2022-07-29T07:18:45.962Z,21.73
2022-07-29T07:21:13.102Z,21.68
2022-07-29T07:23:46.223Z,21.93
2022-07-29T07:26:12.761Z,22.20
2022-07-29T07:28:39.238Z,22.42
2022-07-29T07:31:06.139Z,22.39
2022-07-29T07:33:32.624Z,22.65
2022-07-29T07:35:59.422Z,22.74
2022-07-29T07:38:25.942Z,22.73
2022-07-29T07:40:52.494Z,22.66
2022-07-29T07:43:18.964Z,22.67
2022-07-29T07:45:45.530Z,22.71
2022-07-29T07:48:12.127Z,22.94
2022-07-29T07:50:38.662Z,23.28
2022-07-29T07:53:05.464Z,23.45
2022-07-29T07:55:53.239Z,23.60
2022-07-29T07:58:18.440Z,23.59
2022-07-29T08:00:44.942Z,23.60
2022-07-29T08:03:16.953Z,23.82
2022-07-29T08:05:44.904Z,23.99
2022-07-29T08:08:11.370Z,24.20
2022-07-29T08:10:53.337Z,24.26
2022-07-29T08:13:22.057Z,23.97
2022-07-29T08:15:57.697Z,23.99
2022-07-29T08:18:31.633Z,23.72
2022-07-29T08:20:59.053Z,23.82
2022-07-29T08:23:31.499Z,23.56
2022-07-29T08:26:14.109Z,23.95
2022-07-29T08:28:45.629Z,24.27
2022-07-29T08:31:13.709Z,24.15
2022-07-29T08:33:40.266Z,23.99
2022-07-29T08:36:07.207Z,23.98
2022-07-29T08:38:34.122Z,24.00
2022-07-29T08:41:04.148Z,24.03
2022-07-29T08:43:30.632Z,24.18
2022-07-29T08:45:57.215Z,24.25
2022-07-29T08:48:24.700Z,24.26
2022-07-29T08:50:56.440Z,23.96
2022-07-29T08:53:27.341Z,23.97
2022-07-29T08:55:54.422Z,23.90
2022-07-29T08:58:23.188Z,24.02
2022-07-29T09:00:56.377Z,23.98
2022-07-29T09:03:30.584Z,24.11
2022-07-29T09:05:57.487Z,24.02
2022-07-29T09:08:24.537Z,24.28
2022-07-29T09:10:52.126Z,24.52
2022-07-29T09:13:19.120Z,24.54
2022-07-29T09:15:46.270Z,24.71
2022-07-29T09:18:20.654Z,24.87
2022-07-29T09:21:16.140Z,24.71
2022-07-29T09:24:01.069Z,24.62
2022-07-29T09:26:32.336Z,24.76
2022-07-29T09:29:00.011Z,24.89
2022-07-29T09:31:50.853Z,25.08
2022-07-29T09:34:22.513Z,25.07
2022-07-29T09:36:51.335Z,24.85
2022-07-29T09:39:29.902Z,25.05
2022-07-29T09:41:58.839Z,25.05
2022-07-29T09:44:26.035Z,24.84
2022-07-29T09:46:59.247Z,25.08
2022-07-29T09:49:26.616Z,25.22
2022-07-29T09:52:10.437Z,25.11
2022-07-29T09:54:37.758Z,25.02
2022-07-29T09:57:07.393Z,25.01
2022-07-29T09:59:34.524Z,25.09
2022-07-29T10:02:01.458Z,25.30
2022-07-29T10:04:43.592Z,25.45
2022-07-29T10:07:10.779Z,25.62
2022-07-29T10:09:37.485Z,25.66
2022-07-29T10:12:08.199Z,25.59
2022-07-29T10:14:35.516Z,26.06
2022-07-29T10:17:03.702Z,26.22
2022-07-29T10:19:32.027Z,26.48
2022-07-29T10:22:00.351Z,26.03
2022-07-29T10:24:28.221Z,26.09
2022-07-29T10:26:59.145Z,26.38
2022-07-29T10:29:26.125Z,26.48
2022-07-29T10:32:51.157Z,26.69
2022-07-29T10:35:50.488Z,25.92
2022-07-29T10:38:30.347Z,26.09
2022-07-29T10:41:28.991Z,25.55
2022-07-29T10:44:17.074Z,25.78
2022-07-29T10:46:44.360Z,26.03
2022-07-29T10:49:18.303Z,26.27
2022-07-29T10:51:51.046Z,26.28
2022-07-29T10:54:37.018Z,26.46
2022-07-29T10:57:13.350Z,26.02
2022-07-29T10:59:44.300Z,26.10
2022-07-29T11:02:41.955Z,26.15
2022-07-29T11:05:13.625Z,25.87
2022-07-29T11:08:02.348Z,26.26
2022-07-29T11:10:31.682Z,26.73
2022-07-29T11:12:59.105Z,26.93
2022-07-29T11:18:15.195Z,27.36
2022-07-29T11:20:46.718Z,27.68
2022-07-29T11:23:27.370Z,27.96
2022-07-29T11:26:22.885Z,27.62
2022-07-29T11:29:04.246Z,27.81
2022-07-29T11:31:44.476Z,28.28
2022-07-29T11:34:28.200Z,28.39
2022-07-29T11:37:12.416Z,28.02
2022-07-29T11:39:40.100Z,27.29
2022-07-29T11:42:32.080Z,27.48
2022-07-29T11:45:41.169Z,27.40
2022-07-29T11:48:05.344Z,27.20
2022-07-29T11:50:45.745Z,27.37
2022-07-29T11:53:16.174Z,27.69
2022-07-29T11:55:51.626Z,27.41
2022-07-29T11:58:26.338Z,27.46
2022-07-29T12:00:55.549Z,26.66
2022-07-29T12:03:35.546Z,25.33
2022-07-29T12:06:07.450Z,25.57
2022-07-29T12:08:43.860Z,26.03
2022-07-29T12:11:22.469Z,26.12
2022-07-29T12:13:51.984Z,25.70
2022-07-29T12:16:25.573Z,25.74
2022-07-29T12:19:00.430Z,25.65
2022-07-29T12:21:29.330Z,25.85
2022-07-29T12:24:01.875Z,25.50
2022-07-29T12:26:34.206Z,25.49
2022-07-29T12:29:03.469Z,25.06
2022-07-29T12:31:42.835Z,24.93
2022-07-29T12:34:15.947Z,25.19
2022-07-29T12:36:43.816Z,25.50
2022-07-29T12:39:11.524Z,25.76
2022-07-29T12:41:38.420Z,25.91
2022-07-29T12:44:05.163Z,25.74
2022-07-29T12:46:32.467Z,25.27
2022-07-29T12:48:59.558Z,25.00
2022-07-29T12:51:32.135Z,24.95
2022-07-29T12:54:11.641Z,24.91
2022-07-29T12:56:43.498Z,24.64
2022-07-29T12:59:21.950Z,24.54
2022-07-29T13:01:50.445Z,24.61
2022-07-29T13:04:31.521Z,24.94
2022-07-29T13:07:08.243Z,25.29
2022-07-29T13:09:43.631Z,25.10
2022-07-29T13:12:12.330Z,25.17
2022-07-29T13:14:41.343Z,25.29
2022-07-29T13:17:23.105Z,25.23
2022-07-29T13:19:50.683Z,24.92
2022-07-29T13:22:19.665Z,24.94
2022-07-29T13:24:56.417Z,24.83
2022-07-29T13:27:25.577Z,25.04
2022-07-29T13:29:53.325Z,25.06
2022-07-29T13:32:28.188Z,24.54
2022-07-29T13:35:05.298Z,24.99
2022-07-29T13:37:34.937Z,24.91
2022-07-29T13:40:03.874Z,24.87
2022-07-29T13:42:30.947Z,25.42
2022-07-29T13:44:57.482Z,25.82
2022-07-29T13:47:32.395Z,25.51
2022-07-29T13:50:00.754Z,25.17
2022-07-29T13:52:27.274Z,25.41
2022-07-29T13:54:53.857Z,25.27
2022-07-29T13:57:20.418Z,25.30
2022-07-29T13:59:51.874Z,25.18
2022-07-29T14:02:20.846Z,25.76
2022-07-29T14:04:47.560Z,26.24
2022-07-29T14:07:16.359Z,26.13
2022-07-29T14:09:43.321Z,25.72
2022-07-29T14:12:10.297Z,26.08
2022-07-29T14:14:37.528Z,25.41
2022-07-29T14:17:07.177Z,25.70
2022-07-29T14:19:36.562Z,25.77
2022-07-29T14:22:04.793Z,25.86
2022-07-29T14:24:32.341Z,25.63
2022-07-29T14:26:59.229Z,25.62
2022-07-29T14:29:37.515Z,26.22
2022-07-29T14:32:07.653Z,26.75
2022-07-29T14:34:35.285Z,27.75
2022-07-29T14:37:01.846Z,27.21
2022-07-29T14:39:31.633Z,26.96
2022-07-29T14:41:59.135Z,27.37
2022-07-29T14:44:31.759Z,26.87
2022-07-29T14:47:07.695Z,26.92
2022-07-29T14:49:35.572Z,26.77
2022-07-29T14:52:02.170Z,27.00
2022-07-29T14:54:28.656Z,27.81
2022-07-29T14:56:57.865Z,27.63
2022-07-29T14:59:24.563Z,28.19
2022-07-29T15:01:51.093Z,27.79
2022-07-29T15:04:17.601Z,27.47
2022-07-29T15:06:44.724Z,27.69
2022-07-29T15:09:11.547Z,27.73
2022-07-29T15:11:38.759Z,27.77
2022-07-29T15:14:06.623Z,27.59
2022-07-29T15:16:33.643Z,27.76
2022-07-29T15:19:01.958Z,27.97
2022-07-29T15:21:28.649Z,27.89
2022-07-29T15:23:55.245Z,27.62
2022-07-29T15:26:22.240Z,27.72
2022-07-29T15:28:48.843Z,27.33
2022-07-29T15:31:15.812Z,27.42
2022-07-29T15:33:42.365Z,27.30
2022-07-29T15:36:09.217Z,26.70
2022-07-29T15:38:35.781Z,26.43
2022-07-29T15:41:08.586Z,27.03
2022-07-29T15:43:36.127Z,27.42
2022-07-29T15:46:41.071Z,26.90
2022-07-29T15:49:08.331Z,27.23
2022-07-29T15:51:34.961Z,27.47
2022-07-29T15:54:03.586Z,27.51
2022-07-29T15:56:30.541Z,27.54
2022-07-29T15:58:57.338Z,26.83
2022-07-29T16:01:24.919Z,26.79
2022-07-29T16:03:51.558Z,26.65
2022-07-29T16:06:18.118Z,26.58
2022-07-29T16:08:44.734Z,26.88
2022-07-29T16:11:11.230Z,26.99
2022-07-29T16:13:37.817Z,26.99
2022-07-29T16:16:04.861Z,26.80
2022-07-29T16:18:31.428Z,27.33
2022-07-29T16:20:58.177Z,27.28
2022-07-29T16:23:25.214Z,28.11
2022-07-29T16:26:00.628Z,28.33
2022-07-29T16:28:28.797Z,27.47
2022-07-29T16:30:55.565Z,27.50
2022-07-29T16:33:22.201Z,27.21
2022-07-29T16:35:48.917Z,27.71
2022-07-29T16:38:15.798Z,28.05
2022-07-29T16:40:42.844Z,27.40
2022-07-29T16:43:09.757Z,27.33
2022-07-29T16:45:43.907Z,27.22
2022-07-29T16:48:12.640Z,27.61
2022-07-29T16:50:39.954Z,26.73
2022-07-29T16:53:06.853Z,27.14
2022-07-29T16:55:33.806Z,27.22
2022-07-29T16:58:00.309Z,27.12
2022-07-29T17:00:26.890Z,26.99
2022-07-29T17:02:53.492Z,26.97
2022-07-29T17:05:20.070Z,27.22
2022-07-29T17:07:46.621Z,26.52
2022-07-29T17:10:13.153Z,26.67
2022-07-29T17:12:41.249Z,26.56
2022-07-29T17:15:10.990Z,26.94
2022-07-29T17:17:39.477Z,26.61
2022-07-29T17:20:22.157Z,26.37
2022-07-29T17:22:48.609Z,26.23
2022-07-29T17:25:20.913Z,26.13
2022-07-29T17:27:49.385Z,26.07
2022-07-29T17:30:16.101Z,25.93
2022-07-29T17:32:42.710Z,25.98
2022-07-29T17:35:28.516Z,25.82
2022-07-29T17:37:55.261Z,25.60
2022-07-29T17:40:22.063Z,25.49
2022-07-29T17:42:48.599Z,25.51
2022-07-29T17:45:15.295Z,25.48
2022-07-29T17:47:41.870Z,25.53
2022-07-29T17:50:08.621Z,25.66
2022-07-29T17:52:35.525Z,25.50
2022-07-29T17:55:02.534Z,25.58
2022-07-29T17:57:29.158Z,25.68
2022-07-29T17:59:55.645Z,25.65
2022-07-29T18:02:22.261Z,25.63
2022-07-29T18:04:51.522Z,25.41
2022-07-29T18:07:18.518Z,25.32
2022-07-29T18:09:45.197Z,25.17
2022-07-29T18:12:11.751Z,25.10
2022-07-29T18:14:38.651Z,25.12
2022-07-29T18:17:05.147Z,25.14
2022-07-29T18:19:31.748Z,25.03
2022-07-29T18:22:03.204Z,25.03
2022-07-29T18:24:32.349Z,24.70
2022-07-29T18:26:59.085Z,24.81
2022-07-29T18:29:28.703Z,24.66
2022-07-29T18:31:55.239Z,24.54
2022-07-29T18:34:21.735Z,24.55
2022-07-29T18:36:48.205Z,24.37
2022-07-29T18:39:20.800Z,24.41
2022-07-29T18:41:50.240Z,24.34
2022-07-29T18:44:19.379Z,24.26
2022-07-29T18:46:48.773Z,24.11
2022-07-29T18:49:15.582Z,23.96
2022-07-29T18:51:42.182Z,23.81
2022-07-29T18:54:09.993Z,23.55
2022-07-29T18:56:37.203Z,23.31
2022-07-29T18:59:04.207Z,23.08
2022-07-29T19:01:31.681Z,23.02
2022-07-29T19:03:59.347Z,22.62
2022-07-29T19:06:26.145Z,22.35
2022-07-29T19:08:53.288Z,22.27
2022-07-29T19:11:19.766Z,21.77
2022-07-29T19:13:46.373Z,21.55
2022-07-29T19:16:14.042Z,21.41
2022-07-29T19:18:41.488Z,21.09
2022-07-29T19:21:08.001Z,20.99
2022-07-29T19:24:05.839Z,20.82
2022-07-29T19:26:21.190Z,20.54
2022-07-29T19:28:48.810Z,20.40
2022-07-29T19:31:15.861Z,20.46
2022-07-29T19:33:42.734Z,20.36
2022-07-29T19:36:09.354Z,20.33
2022-07-29T19:38:38.090Z,20.14
2022-07-29T19:41:06.111Z,19.87
2022-07-29T19:43:52.243Z,19.89
2022-07-29T19:46:20.400Z,19.86
2022-07-29T19:48:47.040Z,19.81
2022-07-29T19:51:13.837Z,19.86
2022-07-29T19:53:40.585Z,19.93
2022-07-29T19:56:08.868Z,19.92
2022-07-29T19:58:36.100Z,19.99
2022-07-29T20:01:03.222Z,20.07
2022-07-29T20:03:39.620Z,20.12
2022-07-29T20:06:06.651Z,20.11
2022-07-29T20:08:33.167Z,20.12
2022-07-29T20:10:59.638Z,20.17
2022-07-29T20:13:26.188Z,20.26
2022-07-29T20:15:52.881Z,20.35
2022-07-29T20:18:19.404Z,20.47
2022-07-29T20:20:47.626Z,20.58
2022-07-29T20:23:14.181Z,20.70
2022-07-29T20:25:40.670Z,20.80
2022-07-29T20:28:07.498Z,20.58
2022-07-29T20:30:34.055Z,20.27
2022-07-29T20:33:04.948Z,19.94
2022-07-29T20:35:31.440Z,19.83
2022-07-29T20:37:58.008Z,19.75
2022-07-29T20:40:25.876Z,19.26
2022-07-29T20:42:53.710Z,19.27
2022-07-29T20:45:20.256Z,19.17
2022-07-29T20:47:46.781Z,18.87
2022-07-29T20:50:13.285Z,18.72
2022-07-29T20:52:40.989Z,18.67
2022-07-29T20:55:09.015Z,18.54
2022-07-29T20:57:38.855Z,18.57
2022-07-29T21:00:08.310Z,18.44
2022-07-29T21:02:36.941Z,18.22
2022-07-29T21:05:04.116Z,17.60
2022-07-29T21:07:30.622Z,17.72
2022-07-29T21:09:57.193Z,17.89
2022-07-29T21:12:23.938Z,17.73
2022-07-29T21:14:51.702Z,17.72
2022-07-29T21:17:22.338Z,17.67
2022-07-29T21:19:52.272Z,17.59
2022-07-29T21:22:21.584Z,17.64
2022-07-29T21:24:48.715Z,17.20
2022-07-29T21:27:33.799Z,17.14
2022-07-29T21:30:00.368Z,17.41
2022-07-29T21:32:27.619Z,17.14
2022-07-29T21:34:57.047Z,16.75
2022-07-29T21:37:23.562Z,16.93
2022-07-29T21:39:50.161Z,16.99
2022-07-29T21:42:16.947Z,17.02
2022-07-29T21:44:43.941Z,16.95
2022-07-29T21:47:11.728Z,16.60
2022-07-29T21:49:38.593Z,16.79
2022-07-29T21:52:05.719Z,16.81
2022-07-29T21:54:34.552Z,16.96
2022-07-29T21:57:01.189Z,16.54
2022-07-29T21:59:27.773Z,16.53
2022-07-29T22:01:54.740Z,16.16
2022-07-29T22:04:21.365Z,16.13
2022-07-29T22:06:48.040Z,16.41
2022-07-29T22:09:14.513Z,16.55
2022-07-29T22:11:41.944Z,16.58
2022-07-29T22:14:08.474Z,16.38
2022-07-29T22:16:35.157Z,16.53
2022-07-29T22:19:03.809Z,16.12
2022-07-29T22:21:30.614Z,16.23
2022-07-29T22:23:57.214Z,16.40
2022-07-29T22:26:23.813Z,16.12
2022-07-29T22:28:50.307Z,16.11
2022-07-29T22:31:16.893Z,16.17
2022-07-29T22:33:43.445Z,16.24
2022-07-29T22:36:10.440Z,16.12
2022-07-29T22:38:37.120Z,16.21
2022-07-29T22:41:03.618Z,16.29
2022-07-29T22:43:30.124Z,16.32
2022-07-29T22:45:56.645Z,16.41
2022-07-29T22:48:23.190Z,16.31
2022-07-29T22:50:49.725Z,16.29
2022-07-29T22:53:16.275Z,16.22
2022-07-29T22:55:43.017Z,15.95
2022-07-29T22:58:09.817Z,15.95
2022-07-29T23:00:36.320Z,15.73
2022-07-29T23:03:02.793Z,15.79
2022-07-29T23:05:29.365Z,15.78
2022-07-29T23:07:55.982Z,15.67
2022-07-29T23:10:22.775Z,15.81
2022-07-29T23:12:49.365Z,15.99
2022-07-29T23:15:15.894Z,16.01
2022-07-29T23:17:44.659Z,15.88
2022-07-29T23:20:11.448Z,15.77
2022-07-29T23:22:41.635Z,15.56
2022-07-29T23:25:08.432Z,15.52
2022-07-29T23:27:35.164Z,15.59
2022-07-29T23:30:02.371Z,15.54
2022-07-29T23:32:28.853Z,15.61
2022-07-29T23:34:55.369Z,15.63
2022-07-29T23:37:21.962Z,15.64
2022-07-29T23:39:48.446Z,15.61
2022-07-29T23:42:15.024Z,15.63
2022-07-29T23:44:41.493Z,15.71
2022-07-29T23:47:08.104Z,15.87
2022-07-29T23:49:34.622Z,15.98
2022-07-29T23:52:01.085Z,16.00
2022-07-29T23:54:27.752Z,16.25
2022-07-29T23:56:54.246Z,16.23
2022-07-29T23:59:20.721Z,16.29
